Time;durP1;ratioP1;P1;durP2;ratioP2;P2;SDS_P1;SDS_P2;PMS_P1;PMS_P2;Temp;Humidity;BMP_temperature;BMP_pressure;BME280_temperature;BME280_humidity;BME280_pressure;Samples;Min_cycle;Max_cycle;Signal;HPM_P1;HPM_P2
2022/06/25 00:01:05;;;;;;;18.38;10.57;;;18.40;99.90;;;;;;5016534;28;20026;-54
2022/06/25 00:03:31;;;;;;;16.80;8.65;;;18.50;99.90;;;;;;4998388;28;20033;-50
2022/06/25 00:05:57;;;;;;;11.05;5.82;;;18.70;99.90;;;;;;4998674;28;20022;-52
2022/06/25 00:08:23;;;;;;;11.88;5.38;;;18.80;99.90;;;;;;4998603;28;20030;-53
2022/06/25 00:10:49;;;;;;;9.63;6.20;;;18.90;99.90;;;;;;4998077;28;20052;-52
2022/06/25 00:13:14;;;;;;;10.50;7.90;;;19.00;99.90;;;;;;4997997;28;20116;-51
2022/06/25 00:15:40;;;;;;;18.30;8.95;;;19.00;99.90;;;;;;4998273;28;20378;-54
2022/06/25 00:18:06;;;;;;;15.90;8.27;;;18.90;99.90;;;;;;4998441;28;20080;-53
2022/06/25 00:20:32;;;;;;;12.55;8.13;;;18.80;99.90;;;;;;5015507;28;20089;-53
2022/06/25 00:22:58;;;;;;;14.13;8.68;;;18.70;99.90;;;;;;4998341;28;20117;-54
2022/06/25 00:25:23;;;;;;;10.73;7.30;;;18.60;99.90;;;;;;4998777;28;20026;-49
2022/06/25 00:27:49;;;;;;;12.85;8.70;;;18.60;99.90;;;;;;5015403;28;20044;-50
2022/06/25 00:30:15;;;;;;;15.05;10.05;;;18.50;99.90;;;;;;4997883;28;20406;-52
2022/06/25 00:32:40;;;;;;;37.40;20.42;;;18.50;99.90;;;;;;5015313;28;20121;-51
2022/06/25 00:35:06;;;;;;;33.90;16.35;;;18.40;99.90;;;;;;4997781;28;20049;-54
2022/06/25 00:37:32;;;;;;;22.88;14.20;;;18.40;99.90;;;;;;4998186;28;20377;-50
2022/06/25 00:39:57;;;;;;;25.42;12.63;;;18.30;99.90;;;;;;5015103;28;20018;-49
2022/06/25 00:42:23;;;;;;;12.40;6.72;;;18.30;99.90;;;;;;4997553;28;20029;-50
2022/06/25 00:44:52;;;;;;;16.42;7.60;;;18.20;99.90;;;;;;5015059;28;20440;-53
2022/06/25 00:47:17;;;;;;;10.88;7.75;;;18.10;99.90;;;;;;4998288;28;20076;-49
2022/06/25 00:49:43;;;;;;;18.52;9.60;;;18.20;99.90;;;;;;5013670;28;20030;-52
2022/06/25 00:52:14;;;;;;;12.07;6.82;;;18.20;99.90;;;;;;5014942;28;20166;-53
2022/06/25 00:55:00;;;;;;;;;;;18.20;99.90;;;;;;4998644;28;20030;-51
2022/06/25 00:57:28;;;;;;;19.50;10.60;;;18.30;99.90;;;;;;4996544;28;19906;-48
2022/06/25 01:00:01;;;;;;;17.80;10.63;;;18.30;99.90;;;;;;5015006;28;20054;-50
2022/06/25 01:02:27;;;;;;;17.52;9.52;;;18.20;99.90;;;;;;4997995;28;20026;-53
2022/06/25 01:04:52;;;;;;;28.70;12.32;;;18.20;99.90;;;;;;4997442;28;20033;-51
2022/06/25 01:07:18;;;;;;;23.55;12.70;;;18.10;99.90;;;;;;5014973;28;20037;-52
2022/06/25 01:09:48;;;;;;;19.85;9.65;;;18.10;99.90;;;;;;5014675;28;20037;-56
2022/06/25 01:12:14;;;;;;;15.40;9.40;;;18.00;99.90;;;;;;4997009;28;20022;-52
2022/06/25 01:14:40;;;;;;;15.60;9.15;;;18.00;99.90;;;;;;4997076;28;20032;-55
2022/06/25 01:17:07;;;;;;;13.82;6.43;;;18.00;99.90;;;;;;5014553;28;20029;-52
2022/06/25 01:19:33;;;;;;;17.05;8.40;;;17.90;99.90;;;;;;5014420;28;20080;-55
2022/06/25 01:22:02;;;;;;;8.48;5.88;;;17.90;99.90;;;;;;4996849;28;20033;-52
2022/06/25 01:24:28;;;;;;;13.18;7.43;;;18.00;99.90;;;;;;4997261;28;20026;-50
2022/06/25 01:26:53;;;;;;;12.90;7.13;;;18.00;99.90;;;;;;4996920;28;20033;-56
2022/06/25 01:29:19;;;;;;;10.63;6.97;;;18.00;99.90;;;;;;5014587;28;20045;-54
2022/06/25 01:31:45;;;;;;;15.55;6.82;;;17.90;99.90;;;;;;4996758;28;20030;-54
2022/06/25 01:34:11;;;;;;;12.90;7.15;;;17.90;99.90;;;;;;4996754;28;20026;-55
2022/06/25 01:36:36;;;;;;;11.45;6.75;;;17.90;99.90;;;;;;5014506;28;20041;-56
2022/06/25 01:39:02;;;;;;;13.77;6.55;;;17.90;99.90;;;;;;5014078;28;20061;-52
2022/06/25 01:41:28;;;;;;;13.40;7.00;;;17.80;99.90;;;;;;5014115;28;20026;-57
2022/06/25 01:43:54;;;;;;;10.55;6.82;;;17.80;99.90;;;;;;5014181;28;20026;-55
2022/06/25 01:46:19;;;;;;;18.75;7.75;;;17.70;99.90;;;;;;4997469;28;20021;-53
2022/06/25 01:48:45;;;;;;;14.32;5.35;;;17.70;99.90;;;;;;5014263;28;20029;-55
2022/06/25 01:51:12;;;;;;;13.85;6.78;;;17.70;99.90;;;;;;5013817;28;20120;-53
2022/06/25 01:53:38;;;;;;;19.08;6.32;;;17.70;99.90;;;;;;5013855;28;20022;-53
2022/06/25 01:56:04;;;;;;;15.02;5.70;;;17.60;99.90;;;;;;5013875;28;20025;-53
2022/06/25 01:58:30;;;;;;;18.08;7.55;;;17.60;99.90;;;;;;5014071;28;20022;-55
2022/06/25 02:00:55;;;;;;;11.60;5.28;;;17.60;99.90;;;;;;4996044;28;20050;-54
2022/06/25 02:03:21;;;;;;;9.68;7.00;;;17.70;99.90;;;;;;5013808;28;20080;-54
2022/06/25 02:05:59;;;;;;;16.58;5.45;;;17.70;99.90;;;;;;4996367;28;20103;-57
2022/06/25 02:08:31;;;;;;;10.55;5.70;;;17.70;99.90;;;;;;4996898;28;20072;-52
2022/06/25 02:10:57;;;;;;;11.20;5.53;;;17.80;99.90;;;;;;4995932;28;20022;-56
2022/06/25 02:13:24;;;;;;;14.70;6.88;;;17.80;99.90;;;;;;4995958;28;20026;-56
2022/06/25 02:15:50;;;;;;;10.68;6.00;;;17.80;99.90;;;;;;5013565;28;20018;-57
2022/06/25 02:18:16;;;;;;;20.75;6.05;;;17.60;99.90;;;;;;5013460;28;20022;-55
2022/06/25 02:20:42;;;;;;;8.10;4.63;;;17.60;99.90;;;;;;4996028;28;20030;-53
2022/06/25 02:23:09;;;;;;;12.20;4.97;;;17.60;99.90;;;;;;4995840;28;20038;-51
2022/06/25 02:25:35;;;;;;;19.00;6.25;;;17.60;99.90;;;;;;5013375;28;20033;-55
2022/06/25 02:28:01;;;;;;;10.25;5.05;;;17.60;99.90;;;;;;5013250;28;20046;-50
2022/06/25 02:30:26;;;;;;;7.47;4.80;;;17.50;99.90;;;;;;4995644;28;20024;-53
2022/06/25 02:32:52;;;;;;;15.68;5.97;;;17.50;99.90;;;;;;5013076;28;20025;-51
2022/06/25 02:35:18;;;;;;;11.43;6.25;;;17.50;99.90;;;;;;4995985;28;20032;-51
2022/06/25 02:37:44;;;;;;;11.40;5.50;;;17.40;99.90;;;;;;4995972;28;20022;-51
2022/06/25 02:40:11;;;;;;;11.65;5.22;;;17.30;99.90;;;;;;5013220;28;20037;-51
2022/06/25 02:42:38;;;;;;;15.50;5.50;;;17.30;99.90;;;;;;5013503;28;20026;-50
2022/06/25 02:45:05;;;;;;;19.50;6.70;;;17.20;99.90;;;;;;5013142;28;20053;-53
2022/06/25 02:47:31;;;;;;;15.45;7.93;;;17.20;99.90;;;;;;4995471;28;20088;-51
2022/06/25 02:49:57;;;;;;;12.27;5.80;;;17.20;99.90;;;;;;4995353;28;20026;-51
2022/06/25 02:52:22;;;;;;;17.00;7.13;;;17.20;99.90;;;;;;4995794;28;20037;-52
2022/06/25 02:54:48;;;;;;;26.85;10.27;;;17.10;99.90;;;;;;5013304;28;20034;-51
2022/06/25 02:59:57;;;;;;;22.10;11.20;;;17.10;99.90;;;;;;5013035;28;20037;-48
2022/06/25 03:02:23;;;;;;;21.20;11.45;;;17.20;99.90;;;;;;4995366;28;20029;-49
2022/06/25 03:04:49;;;;;;;24.20;10.30;;;17.20;99.90;;;;;;4995339;28;20041;-51
2022/06/25 03:07:14;;;;;;;44.75;13.18;;;17.20;99.90;;;;;;5012997;28;20079;-49
2022/06/25 03:09:40;;;;;;;35.83;14.80;;;17.10;99.90;;;;;;5012837;28;20018;-49
2022/06/25 03:12:06;;;;;;;22.58;12.32;;;17.10;99.90;;;;;;4996146;28;20026;-51
2022/06/25 03:14:32;;;;;;;31.27;15.18;;;17.20;99.90;;;;;;5016870;28;20018;-52
2022/06/25 03:16:58;;;;;;;25.48;14.15;;;17.10;99.90;;;;;;5016735;28;20022;-54
2022/06/25 03:19:23;;;;;;;16.67;11.98;;;17.00;99.90;;;;;;5016728;28;20029;-54
2022/06/25 03:21:49;;;;;;;27.35;14.25;;;17.10;99.90;;;;;;4999100;28;20165;-52
2022/06/25 03:24:15;;;;;;;28.08;13.57;;;17.20;99.90;;;;;;4999305;28;20374;-53
2022/06/25 03:26:40;;;;;;;28.08;12.93;;;17.20;99.90;;;;;;5016924;28;20034;-51
2022/06/25 03:29:06;;;;;;;21.13;14.38;;;17.20;99.90;;;;;;5016531;28;20092;-54
2022/06/25 03:31:32;;;;;;;29.00;13.10;;;17.10;99.90;;;;;;4998747;28;20030;-55
2022/06/25 03:33:57;;;;;;;25.80;13.20;;;17.00;99.90;;;;;;4999135;28;20024;-52
2022/06/25 03:36:23;;;;;;;18.38;10.77;;;17.10;99.90;;;;;;5016743;28;20026;-55
2022/06/25 03:38:48;;;;;;;21.92;10.98;;;17.10;99.90;;;;;;5016270;28;20032;-57
2022/06/25 03:41:32;;;;;;;26.42;12.45;;;17.10;99.90;;;;;;5016397;28;20030;-52
2022/06/25 03:44:03;;;;;;;26.38;11.55;;;17.20;99.90;;;;;;4999183;28;20030;-53
2022/06/25 03:46:29;;;;;;;20.93;12.10;;;17.10;99.90;;;;;;4998626;28;20033;-50
2022/06/25 03:48:54;;;;;;;22.33;11.88;;;17.10;99.90;;;;;;5016159;28;20030;-52
2022/06/25 03:51:20;;;;;;;24.60;12.18;;;17.10;99.90;;;;;;5016017;28;20097;-52
2022/06/25 03:53:46;;;;;;;27.80;12.30;;;17.20;99.90;;;;;;5016236;28;20022;-51
2022/06/25 03:56:12;;;;;;;20.30;12.13;;;17.20;99.90;;;;;;4998451;28;20025;-50
2022/06/25 03:58:38;;;;;;;19.92;11.95;;;17.10;99.90;;;;;;5016040;28;20028;-54
2022/06/25 04:01:04;;;;;;;11.95;8.68;;;17.20;99.90;;;;;;5015986;28;20018;-54
2022/06/25 04:03:30;;;;;;;18.58;10.88;;;17.40;99.90;;;;;;4998331;28;20076;-52
2022/06/25 04:05:56;;;;;;;11.50;7.50;;;17.70;99.90;;;;;;5016148;28;20021;-49
2022/06/25 04:08:22;;;;;;;12.65;8.98;;;18.00;99.90;;;;;;4999189;28;20422;-48
2022/06/25 04:10:47;;;;;;;14.48;7.30;;;18.30;99.90;;;;;;4998134;28;20025;-52
2022/06/25 04:13:13;;;;;;;17.25;8.40;;;18.50;99.90;;;;;;5016052;28;20018;-53
2022/06/25 04:15:39;;;;;;;25.70;9.18;;;18.70;99.90;;;;;;5015769;28;20018;-51
2022/06/25 04:18:05;;;;;;;18.98;9.25;;;18.90;99.90;;;;;;5015702;28;20076;-49
2022/06/25 04:20:30;;;;;;;13.77;7.63;;;18.80;99.90;;;;;;5015886;28;20483;-49
2022/06/25 04:22:56;;;;;;;25.15;8.75;;;18.90;99.90;;;;;;4997733;28;20120;-48
2022/06/25 04:25:22;;;;;;;19.67;8.82;;;18.90;99.90;;;;;;4998338;28;20026;-51
2022/06/25 04:30:32;;;;;;;12.55;7.60;;;18.90;99.90;;;;;;5015610;28;20041;-51
2022/06/25 04:32:57;;;;;;;14.70;7.93;;;19.10;99.90;;;;;;4998245;28;20030;-52
2022/06/25 04:35:23;;;;;;;11.82;7.88;;;19.20;99.90;;;;;;4998291;28;20065;-49
2022/06/25 04:37:49;;;;;;;15.45;8.95;;;18.90;99.90;;;;;;4998232;28;20026;-49
2022/06/25 04:40:14;;;;;;;16.52;7.20;;;18.80;99.90;;;;;;5015707;28;20026;-50
2022/06/25 04:42:40;;;;;;;16.55;6.97;;;18.80;99.90;;;;;;5015710;28;20032;-51
2022/06/25 04:45:06;;;;;;;10.07;7.10;;;18.70;99.90;;;;;;4998231;28;20037;-51
2022/06/25 04:47:32;;;;;;;13.07;7.45;;;18.90;99.90;;;;;;5015574;28;20137;-50
2022/06/25 04:49:58;;;;;;;16.58;7.97;;;18.80;99.90;;;;;;5015546;28;20504;-53
2022/06/25 04:52:23;;;;;;;22.50;7.82;;;18.80;99.90;;;;;;5015802;28;20508;-51
2022/06/25 04:54:49;;;;;;;20.02;8.63;;;18.90;99.90;;;;;;5015569;28;20050;-51
2022/06/25 04:57:14;;;;;;;16.65;8.13;;;18.80;99.90;;;;;;5015392;28;20026;-54
2022/06/25 04:59:40;;;;;;;15.93;8.13;;;18.40;99.90;;;;;;4997674;28;20115;-50
2022/06/25 05:02:06;;;;;;;13.10;8.00;;;18.50;99.90;;;;;;4997771;28;20030;-53
2022/06/25 05:04:31;;;;;;;20.63;7.85;;;18.60;99.90;;;;;;4997783;28;20080;-50
2022/06/25 05:06:58;;;;;;;19.48;7.80;;;19.00;99.90;;;;;;5015553;28;20030;-50
2022/06/25 05:09:25;;;;;;;8.73;4.82;;;19.50;99.90;;;;;;4998496;28;20030;-51
2022/06/25 05:11:51;;;;;;;12.85;5.05;;;19.90;99.90;;;;;;4997703;28;20105;-52
2022/06/25 05:14:16;;;;;;;11.27;6.40;;;20.40;99.90;;;;;;4997582;28;20045;-49
2022/06/25 05:16:42;;;;;;;8.52;5.25;;;20.70;99.90;;;;;;5015072;28;20018;-53
2022/06/25 05:19:08;;;;;;;12.55;6.00;;;20.60;99.90;;;;;;5015328;28;20029;-49
2022/06/25 05:21:34;;;;;;;4.45;4.05;;;20.90;99.90;;;;;;4997695;28;20065;-50
2022/06/25 05:23:59;;;;;;;5.30;4.00;;;21.10;99.90;;;;;;5014955;28;20034;-51
2022/06/25 05:26:25;;;;;;;8.60;4.25;;;21.50;99.90;;;;;;5014928;28;20046;-51
2022/06/25 05:28:51;;;;;;;12.50;5.07;;;21.80;99.90;;;;;;4997155;28;20029;-54
2022/06/25 05:31:17;;;;;;;7.22;5.40;;;22.00;99.90;;;;;;5014735;28;20030;-49
2022/06/25 05:33:42;;;;;;;10.32;5.75;;;21.90;99.90;;;;;;5015319;28;20022;-49
2022/06/25 05:36:08;;;;;;;14.23;5.50;;;21.70;99.90;;;;;;4996501;28;20029;-49
2022/06/25 05:38:33;;;;;;;6.60;4.00;;;21.30;99.90;;;;;;4997390;28;20164;-49
2022/06/25 05:40:59;;;;;;;8.93;5.13;;;21.30;99.90;;;;;;5015061;28;20037;-51
2022/06/25 05:43:25;;;;;;;6.70;4.70;;;21.50;99.90;;;;;;4997003;28;20116;-49
2022/06/25 05:45:50;;;;;;;10.60;5.00;;;21.80;99.90;;;;;;5014594;28;20088;-49
2022/06/25 05:48:16;;;;;;;11.07;6.45;;;22.10;99.90;;;;;;5014517;28;20022;-49
2022/06/25 05:50:42;;;;;;;7.88;5.85;;;22.20;99.90;;;;;;4997518;28;20033;-51
2022/06/25 05:53:08;;;;;;;11.90;5.82;;;22.10;99.90;;;;;;5014398;28;20026;-49
2022/06/25 05:55:34;;;;;;;9.52;5.53;;;22.10;99.90;;;;;;4997672;28;20034;-53
2022/06/25 05:58:00;;;;;;;7.32;4.70;;;22.20;99.90;;;;;;5014627;28;20029;-49
2022/06/25 06:00:26;;;;;;;9.93;4.60;;;22.80;99.90;;;;;;4996586;28;20085;-49
2022/06/25 06:02:52;;;;;;;9.45;5.28;;;23.10;99.90;;;;;;4997566;28;20030;-50
2022/06/25 06:05:18;;;;;;;11.80;4.88;;;23.60;99.90;;;;;;4997453;28;20037;-49
2022/06/25 06:07:44;;;;;;;5.63;4.88;;;23.40;99.90;;;;;;5014177;28;20026;-50
2022/06/25 06:10:09;;;;;;;8.45;5.80;;;23.20;99.90;;;;;;4996506;28;20030;-52
2022/06/25 06:12:35;;;;;;;11.82;6.65;;;23.00;99.90;;;;;;4996386;28;20050;-52
2022/06/25 06:15:01;;;;;;;11.80;6.47;;;22.80;99.90;;;;;;4996397;28;20022;-49
2022/06/25 06:17:27;;;;;;;11.70;6.15;;;22.30;99.90;;;;;;5013988;28;20018;-49
2022/06/25 06:19:52;;;;;;;11.43;6.03;;;21.90;99.90;;;;;;4996320;28;20048;-50
2022/06/25 06:22:18;;;;;;;6.32;4.50;;;22.50;99.90;;;;;;4996440;28;20079;-49
2022/06/25 06:24:44;;;;;;;10.32;4.63;;;23.10;99.90;;;;;;5014135;28;20084;-52
2022/06/25 06:27:09;;;;;;;8.80;4.10;;;23.80;99.90;;;;;;4996416;28;20030;-50
2022/06/25 06:29:35;;;;;;;11.75;5.80;;;24.30;99.90;;;;;;4997045;28;20025;-49
2022/06/25 06:32:00;;;;;;;8.07;4.47;;;24.40;99.90;;;;;;4997046;28;20029;-50
2022/06/25 06:34:26;;;;;;;8.52;4.45;;;24.70;99.90;;;;;;5013750;28;20141;-53
2022/06/25 06:36:52;;;;;;;10.73;6.07;;;25.00;99.90;;;;;;4996171;28;20049;-53
2022/06/25 06:39:17;;;;;;;8.30;5.28;;;25.00;99.90;;;;;;4996195;28;20033;-50
2022/06/25 06:41:43;;;;;;;6.72;3.45;;;25.00;99.90;;;;;;4996046;28;20076;-51
2022/06/25 06:44:08;;;;;;;6.22;4.28;;;25.70;99.90;;;;;;4996330;28;20049;-51
2022/06/25 06:46:34;;;;;;;8.10;5.60;;;26.20;99.90;;;;;;4995981;28;20117;-51
2022/06/25 06:49:00;;;;;;;7.97;4.43;;;25.30;99.90;;;;;;5013612;28;20084;-52
2022/06/25 06:51:25;;;;;;;5.30;4.80;;;26.00;99.90;;;;;;5013444;28;20026;-52
2022/06/25 06:53:51;;;;;;;10.63;4.65;;;26.50;99.90;;;;;;4996226;28;20029;-51
2022/06/25 06:56:16;;;;;;;6.25;4.80;;;26.00;99.90;;;;;;4996799;28;20029;-51
2022/06/25 06:58:42;;;;;;;7.38;4.82;;;25.50;99.90;;;;;;4995915;28;20109;-50
2022/06/25 07:01:08;;;;;;;10.63;5.28;;;24.70;99.90;;;;;;5013462;28;20026;-51
2022/06/25 07:03:34;;;;;;;10.80;5.38;;;24.40;99.90;;;;;;5013574;28;20022;-49
2022/06/25 07:05:59;;;;;;;11.32;6.10;;;23.90;99.90;;;;;;4995776;28;20040;-52
2022/06/25 07:08:26;;;;;;;9.90;4.50;;;23.40;99.90;;;;;;5013694;28;20026;-49
2022/06/25 07:10:52;;;;;;;8.48;4.90;;;23.00;99.90;;;;;;4996265;28;20022;-47
2022/06/25 07:13:18;;;;;;;5.80;4.95;;;23.40;99.90;;;;;;4996601;28;20411;-53
2022/06/25 07:15:43;;;;;;;8.45;4.85;;;23.50;99.90;;;;;;5013631;28;20154;-50
2022/06/25 07:18:09;;;;;;;9.57;4.93;;;23.10;99.90;;;;;;4995783;28;20022;-47
2022/06/25 07:20:35;;;;;;;8.15;4.78;;;22.50;99.90;;;;;;5013561;28;20022;-47
2022/06/25 07:23:00;;;;;;;5.93;4.53;;;22.90;99.90;;;;;;4996388;28;20034;-52
2022/06/25 07:25:26;;;;;;;6.20;3.67;;;23.20;99.90;;;;;;5013305;28;20026;-47
2022/06/25 07:27:51;;;;;;;6.88;4.32;;;23.50;99.90;;;;;;4996190;28;20038;-48
2022/06/25 07:30:17;;;;;;;6.28;4.20;;;24.00;99.90;;;;;;5013139;28;20134;-48
2022/06/25 07:32:43;;;;;;;7.80;3.50;;;24.50;99.90;;;;;;4995590;28;20029;-47
2022/06/25 07:35:09;;;;;;;6.15;3.42;;;24.60;99.90;;;;;;5013231;28;20028;-48
2022/06/25 07:37:35;;;;;;;4.18;2.65;;;24.60;99.90;;;;;;5013126;28;20026;-52
2022/06/25 07:40:00;;;;;;;6.75;4.80;;;25.20;99.90;;;;;;4995704;28;20040;-47
2022/06/25 07:42:28;;;;;;;15.55;5.82;;;24.90;99.90;;;;;;4995460;28;20030;-46
2022/06/25 07:44:53;;;;;;;10.27;5.20;;;23.90;99.90;;;;;;4995991;28;20033;-49
2022/06/25 07:47:19;;;;;;;5.85;3.85;;;23.20;99.90;;;;;;4996133;28;20022;-46
2022/06/25 07:52:29;;;;;;;6.95;4.25;;;23.70;99.90;;;;;;5013320;28;20037;-46
2022/06/25 07:54:54;;;;;;;9.43;4.80;;;24.00;99.90;;;;;;4996176;28;20026;-45
2022/06/25 07:57:20;;;;;;;10.57;5.18;;;23.70;99.90;;;;;;4995982;28;20022;-48
2022/06/25 07:59:45;;;;;;;6.95;3.15;;;23.40;99.90;;;;;;5016243;28;20022;-48
2022/06/25 08:02:11;;;;;;;9.18;3.40;;;23.80;99.90;;;;;;5016535;28;20022;-47
2022/06/25 08:04:37;;;;;;;7.85;4.88;;;24.20;99.90;;;;;;4998849;28;20176;-46
2022/06/25 08:07:03;;;;;;;8.85;5.05;;;23.80;99.90;;;;;;5016400;28;20026;-46
2022/06/25 08:09:29;;;;;;;10.50;7.40;;;23.20;99.90;;;;;;4998758;28;20026;-48
2022/06/25 08:11:55;;;;;;;4.68;4.22;;;23.60;99.90;;;;;;4998701;28;20033;-47
2022/06/25 08:14:21;;;;;;;5.95;3.25;;;24.20;99.90;;;;;;4999176;28;20420;-50
2022/06/25 08:16:46;;;;;;;8.82;3.55;;;25.70;99.90;;;;;;5016218;28;20058;-50
2022/06/25 08:19:12;;;;;;;5.82;2.92;;;26.80;99.90;;;;;;4999481;28;20073;-47
2022/06/25 08:21:38;;;;;;;6.65;3.70;;;27.10;99.90;;;;;;4998877;28;20500;-49
2022/06/25 08:24:04;;;;;;;7.55;4.20;;;27.70;99.90;;;;;;4999036;28;20034;-49
2022/06/25 08:26:29;;;;;;;7.03;3.78;;;27.30;99.90;;;;;;4998577;28;20030;-48
2022/06/25 08:28:55;;;;;;;5.07;3.88;;;26.80;99.90;;;;;;5016597;28;20022;-49
2022/06/25 08:31:21;;;;;;;5.90;4.40;;;27.10;99.90;;;;;;5015907;28;20026;-47
2022/06/25 08:33:47;;;;;;;4.30;2.90;;;26.40;99.90;;;;;;5016017;28;20473;-47
2022/06/25 08:36:12;;;;;;;3.50;2.53;;;27.50;99.90;;;;;;5015910;28;20072;-47
2022/06/25 08:38:38;;;;;;;4.50;3.35;;;28.30;99.90;;;;;;4999132;28;20026;-48
2022/06/25 08:41:04;;;;;;;4.20;3.15;;;28.30;99.90;;;;;;5016127;28;20064;-47
2022/06/25 08:43:29;;;;;;;7.97;4.15;;;28.30;99.90;;;;;;4999458;28;20028;-48
2022/06/25 08:45:55;;;;;;;9.68;4.32;;;27.60;99.90;;;;;;4999077;28;20022;-47
2022/06/25 08:48:23;;;;;;;2.92;2.70;;;27.50;99.90;;;;;;5015836;28;20022;-47
2022/06/25 08:50:54;;;;;;;4.68;3.55;;;27.30;99.90;;;;;;4998095;28;20026;-50
2022/06/25 08:53:21;;;;;;;5.97;3.42;;;26.80;99.90;;;;;;5015672;28;20025;-49
2022/06/25 08:55:47;;;;;;;5.07;4.38;;;26.70;99.90;;;;;;4998033;28;20120;-50
2022/06/25 08:58:13;;;;;;;7.63;4.40;;;26.20;99.90;;;;;;4999501;28;20061;-48
2022/06/25 09:00:42;;;;;;;5.55;3.72;;;25.60;99.90;;;;;;4997872;28;20018;-49
2022/06/25 09:03:08;;;;;;;6.43;4.47;;;26.00;99.90;;;;;;4998804;28;20053;-46
2022/06/25 09:05:40;;;;;;;4.47;3.30;;;26.20;99.90;;;;;;5015396;28;20026;-50
2022/06/25 09:08:08;;;;;;;5.70;3.40;;;26.40;99.90;;;;;;5015733;28;20476;-50
2022/06/25 09:10:36;;;;;;;8.30;4.20;;;27.90;99.90;;;;;;4996648;28;20025;-50
2022/06/25 09:13:05;;;;;;;5.68;4.70;;;29.00;99.90;;;;;;5015102;28;20483;-51
2022/06/25 09:15:39;;;;;;;5.50;3.30;;;28.40;99.90;;;;;;5015174;28;20018;-53
2022/06/25 09:18:09;;;;;;;17.42;5.05;;;27.90;99.90;;;;;;4998411;28;20022;-49
2022/06/25 09:24:03;;;;;;;6.22;4.38;;;28.30;99.90;;;;;;5015301;28;20105;-51
2022/06/25 09:26:29;;;;;;;5.32;3.80;;;29.10;99.90;;;;;;5014875;28;20049;-48
2022/06/25 09:29:00;;;;;;;5.72;4.63;;;28.40;99.90;;;;;;4997332;28;20022;-51
2022/06/25 09:31:35;;;;;;;6.63;5.05;;;27.50;99.90;;;;;;5014828;28;20026;-49
2022/06/25 09:34:02;;;;;;;4.63;3.65;;;27.10;99.90;;;;;;4997289;28;20488;-53
2022/06/25 09:36:28;;;;;;;9.82;4.53;;;27.60;99.90;;;;;;5014780;28;20033;-53
2022/06/25 09:38:54;;;;;;;7.68;5.05;;;27.50;99.90;;;;;;4997140;28;20033;-52
2022/06/25 09:41:23;;;;;;;5.40;4.35;;;28.00;99.90;;;;;;4997012;28;20056;-52
2022/06/25 09:43:48;;;;;;;12.93;5.93;;;27.20;99.90;;;;;;5014677;28;20026;-50
2022/06/25 09:46:14;;;;;;;9.15;5.53;;;26.50;99.90;;;;;;5006911;28;20399;-51
2022/06/25 09:48:41;;;;;;;9.60;5.40;;;25.60;99.90;;;;;;5034602;28;20028;-51
2022/06/25 09:51:11;;;;;;;5.45;4.95;;;25.30;99.90;;;;;;5034153;28;20064;-53
2022/06/25 09:53:53;;;;;;;7.53;4.43;;;26.20;99.90;;;;;;5017383;28;20017;-50
2022/06/25 09:56:23;;;;;;;13.25;5.35;;;26.90;99.90;;;;;;5016319;28;20431;-50
2022/06/25 09:58:49;;;;;;;5.85;4.10;;;28.10;99.90;;;;;;5016233;28;20021;-51
2022/06/25 10:01:17;;;;;;;6.28;4.38;;;29.00;99.90;;;;;;5016293;28;20028;-48
2022/06/25 10:03:44;;;;;;;7.78;4.32;;;29.20;99.90;;;;;;5016694;28;20171;-49
2022/06/25 10:06:12;;;;;;;6.38;4.95;;;29.50;99.90;;;;;;5034059;28;20037;-50
2022/06/25 10:08:38;;;;;;;9.63;4.40;;;29.70;99.90;;;;;;5034221;28;20038;-52
2022/06/25 10:11:06;;;;;;;5.22;3.97;;;30.40;99.90;;;;;;5016364;28;20044;-51
2022/06/25 10:13:33;;;;;;;6.57;4.32;;;31.10;99.90;;;;;;5033915;28;20025;-53
2022/06/25 10:15:59;;;;;;;4.38;3.97;;;30.90;99.90;;;;;;5016185;28;20017;-52
2022/06/25 10:18:25;;;;;;;5.63;3.20;;;30.90;99.90;;;;;;5016676;28;20025;-51
2022/06/25 10:20:51;;;;;;;4.28;3.88;;;29.90;99.90;;;;;;5015655;28;20172;-49
2022/06/25 10:23:19;;;;;;;8.82;4.07;;;29.60;99.90;;;;;;5033751;28;20026;-49
2022/06/25 10:25:46;;;;;;;7.35;4.72;;;29.60;99.90;;;;;;5015805;28;20029;-52
2022/06/25 10:28:14;;;;;;;8.27;4.47;;;29.00;99.90;;;;;;5015902;28;20025;-52
2022/06/25 10:30:50;;;;;;;4.10;3.67;;;29.00;99.90;;;;;;5033502;28;20049;-50
2022/06/25 10:33:57;;;;;;;5.07;3.40;;;28.60;99.90;;;;;;5015847;28;20029;-53
2022/06/25 10:36:47;;;;;;;4.88;3.42;;;27.60;99.90;;;;;;5015600;28;20060;-48
2022/06/25 10:39:28;;;;;;;6.80;3.75;;;27.50;99.90;;;;;;5021858;28;20140;-50
2022/06/25 10:45:16;;;;;;;3.67;2.58;;;27.50;99.90;;;;;;5033753;28;20040;-48
2022/06/25 10:47:46;;;;;;;5.57;3.22;;;27.60;99.90;;;;;;4967080;28;20144;-50
2022/06/25 10:50:21;;;;;;;4.20;3.38;;;28.20;99.90;;;;;;5015632;28;20499;-50
2022/06/25 10:53:05;;;;;;;6.70;3.13;;;27.90;99.90;;;;;;5015549;28;20033;-52
2022/06/25 10:55:34;;;;;;;3.88;2.70;;;27.80;99.90;;;;;;5015873;28;20045;-50
2022/06/25 10:58:15;;;;;;;4.78;3.30;;;28.20;99.90;;;;;;5015585;28;20025;-51
2022/06/25 11:00:55;;;;;;;6.45;2.53;;;28.70;99.90;;;;;;5015649;28;20021;-50
2022/06/25 11:03:30;;;;;;;5.22;3.45;;;28.80;99.90;;;;;;5033645;28;20025;-50
2022/06/25 11:06:17;;;;;;;7.35;4.07;;;27.80;99.90;;;;;;5016347;28;20060;-48
2022/06/25 11:08:44;;;;;;;5.00;4.10;;;27.00;99.90;;;;;;5015441;28;20034;-51
2022/06/25 11:11:10;;;;;;;3.72;2.92;;;27.10;99.90;;;;;;5033426;28;20029;-50
2022/06/25 11:13:39;;;;;;;3.90;2.83;;;27.10;99.90;;;;;;5033168;28;20025;-51
2022/06/25 11:16:16;;;;;;;6.22;3.40;;;27.30;99.90;;;;;;5033173;28;20030;-49
2022/06/25 11:18:46;;;;;;;5.47;2.75;;;27.20;99.90;;;;;;5016295;28;20021;-52
2022/06/25 11:21:27;;;;;;;5.43;2.75;;;27.60;99.90;;;;;;5015582;28;20049;-52
2022/06/25 11:24:04;;;;;;;5.60;2.42;;;27.90;99.90;;;;;;5015603;28;20042;-50
2022/06/25 11:29:53;;;;;;;3.83;2.47;;;28.00;99.90;;;;;;5033655;28;20439;-53
2022/06/25 11:32:20;;;;;;;6.45;3.00;;;27.60;99.90;;;;;;5015500;28;20021;-48
2022/06/25 11:34:54;;;;;;;4.32;3.30;;;27.60;99.90;;;;;;5019687;28;20033;-47
2022/06/25 11:37:21;;;;;;;11.02;3.63;;;27.50;99.90;;;;;;5019060;28;20071;-49
2022/06/25 11:39:48;;;;;;;4.95;3.60;;;27.00;99.90;;;;;;5019453;28;20087;-52
2022/06/25 11:42:15;;;;;;;5.43;2.90;;;26.00;99.90;;;;;;5018947;28;20034;-53
2022/06/25 11:44:49;;;;;;;6.95;3.22;;;25.60;99.90;;;;;;5036689;28;20033;-49
2022/06/25 11:47:22;;;;;;;7.63;3.58;;;25.60;99.90;;;;;;5018854;28;20036;-49
2022/06/25 11:49:48;;;;;;;6.13;3.30;;;25.40;99.90;;;;;;5018778;28;20079;-47
2022/06/25 11:52:15;;;;;;;4.68;3.00;;;25.20;99.90;;;;;;5018757;28;20025;-47
2022/06/25 11:54:42;;;;;;;3.60;3.00;;;25.10;99.90;;;;;;5036761;28;20022;-52
2022/06/25 11:57:10;;;;;;;5.95;2.70;;;25.00;99.90;;;;;;5036570;28;20033;-54
2022/06/25 11:59:37;;;;;;;5.82;2.50;;;25.00;99.90;;;;;;5036320;28;20040;-52
2022/06/25 12:02:05;;;;;;;3.90;2.30;;;25.20;99.90;;;;;;5036353;28;20065;-56
2022/06/25 12:04:32;;;;;;;6.47;2.55;;;25.60;99.90;;;;;;5036293;28;20029;-56
2022/06/25 12:06:58;;;;;;;6.35;3.20;;;26.00;99.90;;;;;;5018726;28;20022;-52
2022/06/25 12:09:25;;;;;;;3.22;2.92;;;26.20;99.90;;;;;;5018471;28;20120;-52
2022/06/25 12:11:55;;;;;;;4.40;2.63;;;25.70;99.90;;;;;;5019183;28;20029;-49
2022/06/25 12:14:22;;;;;;;5.97;3.03;;;25.90;99.90;;;;;;5018435;28;20025;-51
2022/06/25 12:16:48;;;;;;;5.88;2.80;;;26.00;99.90;;;;;;5018273;28;20498;-49
2022/06/25 12:19:14;;;;;;;3.15;1.98;;;25.80;99.90;;;;;;5018410;28;20026;-54
2022/06/25 12:21:40;;;;;;;6.75;2.33;;;26.00;99.90;;;;;;5018454;28;20125;-56
2022/06/25 12:24:07;;;;;;;6.40;2.80;;;26.30;99.90;;;;;;5018178;28;20079;-50
2022/06/25 12:26:34;;;;;;;5.60;3.10;;;25.90;99.90;;;;;;5036070;28;20083;-51
2022/06/25 12:29:23;;;;;;;3.88;2.67;;;25.50;99.90;;;;;;5035828;28;20052;-53
2022/06/25 12:31:55;;;;;;;5.30;2.80;;;25.50;99.90;;;;;;5018287;28;20071;-52
2022/06/25 12:34:21;;;;;;;2.92;1.88;;;25.50;99.90;;;;;;5017906;28;20044;-54
2022/06/25 12:36:48;;;;;;;4.68;2.30;;;25.60;99.90;;;;;;5036001;28;20022;-54
2022/06/25 12:39:37;;;;;;;2.67;2.40;;;25.90;99.90;;;;;;5035559;28;20029;-54
2022/06/25 12:42:09;;;;;;;3.38;2.20;;;25.80;99.90;;;;;;5035789;28;20036;-56
2022/06/25 12:44:39;;;;;;;11.05;3.22;;;25.80;99.90;;;;;;5035294;28;20029;-56
2022/06/25 12:47:08;;;;;;;6.05;2.40;;;25.60;99.90;;;;;;5035518;28;20049;-52
2022/06/25 12:49:40;;;;;;;5.00;2.30;;;25.60;99.90;;;;;;5018081;28;20025;-53
2022/06/25 12:52:05;;;;;;;4.72;2.92;;;25.70;99.90;;;;;;5035895;28;20029;-49
2022/06/25 12:54:43;;;;;;;4.20;2.28;;;25.70;99.90;;;;;;5017539;28;20068;-50
2022/06/25 12:57:08;;;;;;;2.78;2.03;;;25.80;99.90;;;;;;5017643;28;20120;-50
2022/06/25 12:59:34;;;;;;;5.18;2.25;;;25.90;99.90;;;;;;5035136;28;20053;-51